Time;durP1;ratioP1;P1;durP2;ratioP2;P2;SDS_P1;SDS_P2;PMS_P1;PMS_P2;Temp;Humidity;BMP_temperature;BMP_pressure;BME280_temperature;BME280_humidity;BME280_pressure;Samples;Min_cycle;Max_cycle;Signal;HPM_P1;HPM_P2
2022/05/02 00:01:24;;;;;;;21.02;16.42;;;;;;;;;;4386584;32;20622;-54
2022/05/02 00:03:50;;;;;;;21.83;15.40;;;;;;;;;;4397747;32;20221;-55
2022/05/02 00:06:15;;;;;;;20.98;14.73;;;;;;;;;;4408643;32;20622;-55
2022/05/02 00:08:40;;;;;;;16.90;13.32;;;;;;;;;;4417354;32;20328;-55
2022/05/02 00:11:06;;;;;;;18.95;14.68;;;;;;;;;;4416798;32;20806;-55
2022/05/02 00:13:32;;;;;;;22.57;13.13;;;;;;;;;;4416672;32;20280;-54
2022/05/02 00:15:58;;;;;;;14.23;11.82;;;;;;;;;;4402908;32;20218;-55
2022/05/02 00:18:23;;;;;;;17.47;10.77;;;;;;;;;;4401452;32;20338;-55
2022/05/02 00:20:49;;;;;;;15.10;10.73;;;;;;;;;;4401799;32;20406;-55
2022/05/02 00:23:14;;;;;;;12.27;10.27;;;;;;;;;;4400329;32;20565;-54
2022/05/02 00:25:40;;;;;;;15.97;12.30;;;;;;;;;;4401586;32;20645;-55
2022/05/02 00:28:11;;;;;;;12.97;11.03;;;;;;;;;;4401701;32;20642;-55
2022/05/02 00:30:36;;;;;;;12.27;10.07;;;;;;;;;;4403592;32;20292;-55
2022/05/02 00:33:02;;;;;;;14.70;10.80;;;;;;;;;;4404441;32;20754;-55
2022/05/02 00:35:27;;;;;;;18.48;10.63;;;;;;;;;;4404191;32;20319;-56
2022/05/02 00:37:53;;;;;;;13.05;9.95;;;;;;;;;;4404215;32;20842;-55
2022/05/02 00:40:19;;;;;;;15.30;9.90;;;;;;;;;;4404134;32;20335;-57
2022/05/02 00:42:46;;;;;;;11.70;10.03;;;;;;;;;;4404325;32;20297;-55
2022/05/02 00:45:14;;;;;;;12.93;9.73;;;;;;;;;;4404082;32;20202;-55
2022/05/02 00:47:40;;;;;;;13.07;9.98;;;;;;;;;;4404138;32;20237;-55
2022/05/02 00:50:08;;;;;;;15.85;9.43;;;;;;;;;;4404183;32;20264;-56
2022/05/02 00:52:34;;;;;;;12.43;9.88;;;;;;;;;;4418716;32;20564;-55
2022/05/02 00:55:00;;;;;;;11.88;10.20;;;;;;;;;;4419288;32;20743;-55
2022/05/02 00:57:26;;;;;;;12.00;9.68;;;;;;;;;;4419195;32;20295;-55
2022/05/02 00:59:51;;;;;;;13.30;9.45;;;;;;;;;;4404636;32;20301;-55
2022/05/02 01:02:17;;;;;;;17.73;10.90;;;;;;;;;;4404213;32;20233;-55
2022/05/02 01:04:43;;;;;;;14.53;10.70;;;;;;;;;;4404399;32;20311;-56
2022/05/02 01:07:10;;;;;;;12.30;10.27;;;;;;;;;;4416703;32;20247;-55
2022/05/02 01:09:41;;;;;;;10.47;9.37;;;;;;;;;;4419056;32;20274;-55
2022/05/02 01:12:08;;;;;;;15.75;11.93;;;;;;;;;;4419282;32;20224;-55
2022/05/02 01:14:34;;;;;;;13.60;10.15;;;;;;;;;;4413888;32;20304;-55
2022/05/02 01:17:01;;;;;;;11.80;9.27;;;;;;;;;;4403982;32;20575;-55
2022/05/02 01:19:26;;;;;;;14.25;10.30;;;;;;;;;;4400187;32;20295;-55
2022/05/02 01:21:52;;;;;;;12.15;9.30;;;;;;;;;;4390157;32;20232;-55
2022/05/02 01:24:17;;;;;;;13.27;9.13;;;;;;;;;;4403660;32;20302;-55
2022/05/02 01:26:42;;;;;;;10.63;9.13;;;;;;;;;;4403703;32;20255;-55
2022/05/02 01:29:08;;;;;;;12.52;10.70;;;;;;;;;;4390248;32;20622;-55
2022/05/02 01:31:34;;;;;;;12.93;9.73;;;;;;;;;;4403605;32;20295;-55
2022/05/02 01:34:00;;;;;;;15.98;10.63;;;;;;;;;;4404215;32;20225;-55
2022/05/02 01:36:26;;;;;;;12.93;9.30;;;;;;;;;;4403697;32;20344;-55
2022/05/02 01:38:51;;;;;;;9.15;7.57;;;;;;;;;;4403522;32;20272;-55
2022/05/02 01:41:17;;;;;;;17.17;8.83;;;;;;;;;;4402495;32;20361;-55
2022/05/02 01:43:43;;;;;;;9.90;8.47;;;;;;;;;;4404096;32;20237;-56
2022/05/02 01:46:11;;;;;;;10.60;8.67;;;;;;;;;;4403684;32;20674;-55
2022/05/02 01:48:36;;;;;;;12.15;8.40;;;;;;;;;;4404086;32;20645;-55
2022/05/02 01:51:02;;;;;;;10.48;7.75;;;;;;;;;;4403631;32;20314;-55
2022/05/02 01:53:28;;;;;;;11.02;7.95;;;;;;;;;;4403407;32;20669;-54
2022/05/02 01:55:53;;;;;;;15.17;9.63;;;;;;;;;;4403926;32;20469;-55
2022/05/02 01:58:19;;;;;;;12.57;9.00;;;;;;;;;;4398529;32;20248;-55
2022/05/02 02:00:45;;;;;;;12.40;9.82;;;;;;;;;;4388371;32;20280;-55
2022/05/02 02:03:11;;;;;;;11.73;8.47;;;;;;;;;;4395134;32;20594;-54
2022/05/02 02:05:49;;;;;;;10.68;7.90;;;;;;;;;;4403102;32;20280;-56
2022/05/02 02:08:21;;;;;;;9.75;8.65;;;;;;;;;;4389553;32;20292;-55
2022/05/02 02:10:47;;;;;;;13.57;9.83;;;;;;;;;;4403600;32;20260;-55
2022/05/02 02:13:14;;;;;;;11.48;8.55;;;;;;;;;;4403224;32;20391;-55
2022/05/02 02:15:40;;;;;;;15.23;10.47;;;;;;;;;;4398609;32;20305;-56
2022/05/02 02:18:06;;;;;;;16.65;8.93;;;;;;;;;;4391728;32;20770;-55
2022/05/02 02:20:33;;;;;;;9.57;8.13;;;;;;;;;;4389150;32;20830;-55
2022/05/02 02:22:59;;;;;;;17.10;8.80;;;;;;;;;;4417754;32;20689;-55
2022/05/02 02:25:25;;;;;;;11.02;8.82;;;;;;;;;;4409049;32;20358;-55
2022/05/02 02:27:50;;;;;;;13.43;9.50;;;;;;;;;;4402968;32;20237;-54
2022/05/02 02:30:17;;;;;;;10.18;6.87;;;;;;;;;;4403322;32;20271;-55
2022/05/02 02:32:43;;;;;;;9.48;7.87;;;;;;;;;;4402977;32;20237;-55
2022/05/02 02:35:08;;;;;;;9.88;7.20;;;;;;;;;;4402912;32;20284;-56
2022/05/02 02:37:34;;;;;;;8.25;6.87;;;;;;;;;;4399991;32;20326;-54
2022/05/02 02:39:59;;;;;;;9.57;7.28;;;;;;;;;;4388837;32;20205;-55
2022/05/02 02:42:25;;;;;;;11.05;8.07;;;;;;;;;;4402648;32;20605;-55
2022/05/02 02:44:51;;;;;;;9.63;7.60;;;;;;;;;;4389544;32;20308;-54
2022/05/02 02:47:17;;;;;;;9.00;7.32;;;;;;;;;;4392602;32;20225;-55
2022/05/02 02:49:42;;;;;;;10.20;7.22;;;;;;;;;;4402812;32;20701;-57
2022/05/02 02:52:08;;;;;;;11.70;7.30;;;;;;;;;;4402690;32;20732;-54
2022/05/02 02:54:34;;;;;;;10.63;7.80;;;;;;;;;;4402861;32;20371;-55
2022/05/02 02:56:59;;;;;;;12.13;8.47;;;;;;;;;;4402785;32;20201;-54
2022/05/02 02:59:25;;;;;;;7.97;6.80;;;;;;;;;;4402352;32;20392;-57
2022/05/02 03:01:50;;;;;;;12.37;7.82;;;;;;;;;;4402659;32;20280;-54
2022/05/02 03:07:00;;;;;;;21.20;8.32;;;;;;;;;;4389687;32;20240;-54
2022/05/02 03:09:25;;;;;;;9.77;8.07;;;;;;;;;;4387416;32;20288;-55
2022/05/02 03:11:51;;;;;;;14.87;8.45;;;;;;;;;;4387482;32;20229;-55
2022/05/02 03:14:16;;;;;;;10.73;7.30;;;;;;;;;;4390763;32;20353;-54
2022/05/02 03:16:42;;;;;;;10.95;8.65;;;;;;;;;;4402643;32;20239;-54
2022/05/02 03:19:07;;;;;;;16.83;8.70;;;;;;;;;;4402706;32;20290;-54
2022/05/02 03:21:32;;;;;;;12.80;9.27;;;;;;;;;;4403194;32;20297;-55
2022/05/02 03:23:58;;;;;;;11.23;9.13;;;;;;;;;;4410063;32;20281;-55
2022/05/02 03:26:23;;;;;;;11.50;9.07;;;;;;;;;;4418024;32;20768;-55
2022/05/02 03:28:49;;;;;;;12.70;8.77;;;;;;;;;;4417811;32;20274;-55
2022/05/02 03:31:15;;;;;;;16.02;9.20;;;;;;;;;;4417224;32;20303;-55
2022/05/02 03:33:41;;;;;;;12.85;8.90;;;;;;;;;;4417721;32;20245;-55
2022/05/02 03:36:06;;;;;;;15.33;8.47;;;;;;;;;;4417653;32;20256;-55
2022/05/02 03:38:32;;;;;;;14.82;10.27;;;;;;;;;;4408486;32;20277;-55
2022/05/02 03:40:57;;;;;;;13.30;9.40;;;;;;;;;;4402472;32;20654;-55
2022/05/02 03:43:23;;;;;;;12.93;9.70;;;;;;;;;;4402265;32;20722;-55
2022/05/02 03:45:48;;;;;;;14.02;8.95;;;;;;;;;;4402595;32;20403;-55
2022/05/02 03:48:14;;;;;;;10.13;8.93;;;;;;;;;;4402764;32;20320;-55
2022/05/02 03:50:39;;;;;;;15.98;8.93;;;;;;;;;;4403227;32;20297;-55
2022/05/02 03:53:05;;;;;;;13.50;10.60;;;;;;;;;;4402806;32;20346;-55
2022/05/02 03:55:30;;;;;;;14.20;10.68;;;;;;;;;;4403277;32;20354;-55
2022/05/02 03:57:56;;;;;;;16.33;11.17;;;;;;;;;;4402662;32;20296;-54
2022/05/02 04:00:21;;;;;;;18.47;12.57;;;;;;;;;;4402909;32;20694;-55
2022/05/02 04:02:46;;;;;;;17.37;12.67;;;;;;;;;;4402769;32;20255;-55
2022/05/02 04:05:12;;;;;;;22.10;13.43;;;;;;;;;;4404114;32;20352;-55
2022/05/02 04:07:37;;;;;;;21.87;11.77;;;;;;;;;;4404756;32;20323;-55
2022/05/02 04:10:04;;;;;;;17.85;12.30;;;;;;;;;;4390871;32;20901;-55
2022/05/02 04:12:37;;;;;;;29.50;13.17;;;;;;;;;;4390563;32;20237;-56
2022/05/02 04:15:07;;;;;;;18.13;12.13;;;;;;;;;;4399033;32;20213;-56
2022/05/02 04:17:33;;;;;;;14.50;10.97;;;;;;;;;;4405289;32;20385;-56
2022/05/02 04:19:58;;;;;;;15.67;11.67;;;;;;;;;;4389265;32;20700;-56
2022/05/02 04:22:24;;;;;;;15.93;11.53;;;;;;;;;;4416573;32;20296;-56
2022/05/02 04:24:49;;;;;;;16.30;10.47;;;;;;;;;;4420151;32;20281;-56
2022/05/02 04:27:15;;;;;;;25.87;13.40;;;;;;;;;;4420380;32;20278;-54
2022/05/02 04:29:40;;;;;;;22.03;12.87;;;;;;;;;;4420584;32;20276;-57
2022/05/02 04:32:06;;;;;;;22.77;12.80;;;;;;;;;;4420574;32;20237;-55
2022/05/02 04:34:31;;;;;;;21.52;12.75;;;;;;;;;;4421096;32;20295;-56
2022/05/02 04:36:57;;;;;;;17.90;11.32;;;;;;;;;;4420561;32;20200;-54
2022/05/02 04:39:22;;;;;;;16.92;9.98;;;;;;;;;;4390159;32;20622;-54
2022/05/02 04:41:48;;;;;;;27.20;14.68;;;;;;;;;;4401958;32;20628;-55
2022/05/02 04:44:13;;;;;;;25.08;13.48;;;;;;;;;;4395476;32;20716;-54
2022/05/02 04:46:38;;;;;;;12.70;9.30;;;;;;;;;;4390110;32;20607;-54
2022/05/02 04:49:04;;;;;;;15.77;9.60;;;;;;;;;;4390104;32;20730;-54
2022/05/02 04:51:29;;;;;;;13.77;10.07;;;;;;;;;;4390166;32;20385;-54
2022/05/02 04:53:55;;;;;;;12.43;8.63;;;;;;;;;;4391000;32;20446;-54
2022/05/02 04:56:21;;;;;;;14.75;9.82;;;;;;;;;;4405332;32;20677;-54
2022/05/02 04:58:46;;;;;;;11.23;8.23;;;;;;;;;;4397316;32;20246;-54
2022/05/02 05:01:12;;;;;;;11.67;8.63;;;;;;;;;;4389504;32;20709;-54
2022/05/02 05:03:38;;;;;;;14.70;8.90;;;;;;;;;;4399483;32;20237;-55
2022/05/02 05:06:03;;;;;;;17.75;11.02;;;;;;;;;;4404647;32;20574;-56
2022/05/02 05:08:29;;;;;;;13.23;10.20;;;;;;;;;;4405225;32;20234;-54
2022/05/02 05:11:25;;;;;;;13.00;9.57;;;;;;;;;;4405164;32;20307;-56
2022/05/02 05:17:30;;;;;;;18.10;10.93;;;;;;;;;;4404408;32;20306;-56
2022/05/02 05:19:58;;;;;;;21.67;14.47;;;;;;;;;;4393874;32;20345;-56
2022/05/02 05:22:38;;;;;;;22.90;15.00;;;;;;;;;;4417834;32;20233;-55
2022/05/02 05:25:23;;;;;;;19.33;13.10;;;;;;;;;;4418734;32;20292;-56
2022/05/02 05:27:57;;;;;;;17.40;14.27;;;;;;;;;;4419782;32;20261;-55
2022/05/02 05:30:27;;;;;;;24.80;15.43;;;;;;;;;;4419867;32;20243;-55
2022/05/02 05:33:20;;;;;;;16.98;11.93;;;;;;;;;;4419589;32;20380;-57
2022/05/02 05:36:07;;;;;;;16.42;10.60;;;;;;;;;;4420054;32;20289;-56
2022/05/02 05:38:53;;;;;;;11.90;10.33;;;;;;;;;;4410564;32;20429;-55
2022/05/02 05:41:35;;;;;;;13.83;8.37;;;;;;;;;;4404372;32;20236;-55
2022/05/02 05:44:12;;;;;;;11.80;9.20;;;;;;;;;;4396336;32;20251;-60
2022/05/02 05:46:40;;;;;;;11.37;8.77;;;;;;;;;;4389260;32;20214;-55
2022/05/02 05:49:20;;;;;;;12.67;7.63;;;;;;;;;;4389469;32;20233;-54
2022/05/02 05:52:15;;;;;;;9.47;7.03;;;;;;;;;;4399812;32;20312;-54
2022/05/02 05:54:55;;;;;;;20.73;7.50;;;;;;;;;;4404356;32;20205;-54
2022/05/02 05:57:24;;;;;;;7.97;7.10;;;;;;;;;;4404404;32;20327;-54
2022/05/02 06:00:01;;;;;;;12.53;7.33;;;;;;;;;;4404112;32;20260;-55
2022/05/02 06:02:49;;;;;;;10.20;7.37;;;;;;;;;;4387524;32;20238;-54
2022/05/02 06:05:16;;;;;;;7.40;6.13;;;;;;;;;;4396363;32;20219;-54
2022/05/02 06:07:44;;;;;;;12.82;7.18;;;;;;;;;;4388752;32;21112;-54
2022/05/02 06:10:10;;;;;;;9.03;6.10;;;;;;;;;;4390017;32;20254;-55
2022/05/02 06:12:37;;;;;;;9.47;7.70;;;;;;;;;;4403411;32;20605;-54
2022/05/02 06:20:39;;;;;;;9.98;7.30;;;;;;;;;;4405204;32;20345;-56
2022/05/02 06:23:09;;;;;;;9.67;6.83;;;;;;;;;;4400107;32;20320;-54
2022/05/02 06:25:37;;;;;;;7.45;6.68;;;;;;;;;;4388615;32;20297;-55
2022/05/02 06:28:04;;;;;;;10.30;7.20;;;;;;;;;;4388062;32;20573;-55
2022/05/02 06:30:32;;;;;;;12.50;7.05;;;;;;;;;;4387835;32;20230;-55
2022/05/02 06:33:01;;;;;;;7.10;6.40;;;;;;;;;;4362068;32;20269;-55
2022/05/02 06:35:36;;;;;;;15.70;8.23;;;;;;;;;;4388012;32;20257;-55
2022/05/02 06:38:07;;;;;;;9.30;6.50;;;;;;;;;;4393750;32;20676;-54
2022/05/02 06:40:51;;;;;;;8.10;6.37;;;;;;;;;;4397520;32;20245;-55
2022/05/02 06:43:25;;;;;;;13.20;7.47;;;;;;;;;;4399437;32;20391;-55
2022/05/02 06:46:20;;;;;;;7.23;6.53;;;;;;;;;;4387706;32;20209;-56
2022/05/02 06:48:49;;;;;;;12.23;7.43;;;;;;;;;;4403370;32;20242;-55
2022/05/02 06:51:23;;;;;;;10.68;8.48;;;;;;;;;;4403077;32;20254;-54
2022/05/02 06:54:22;;;;;;;12.63;7.90;;;;;;;;;;4403679;32;20265;-54
2022/05/02 06:56:56;;;;;;;16.25;11.02;;;;;;;;;;4403558;32;20253;-55
2022/05/02 06:59:46;;;;;;;11.15;8.85;;;;;;;;;;4386863;32;20241;-56
2022/05/02 07:02:11;;;;;;;10.93;7.90;;;;;;;;;;4389013;32;20259;-55
2022/05/02 07:04:55;;;;;;;10.48;7.65;;;;;;;;;;4403380;32;20632;-55
2022/05/02 07:07:26;;;;;;;12.82;7.70;;;;;;;;;;4403139;32;20221;-55
2022/05/02 07:10:01;;;;;;;14.15;7.72;;;;;;;;;;4403222;32;20636;-55
2022/05/02 07:12:31;;;;;;;11.20;7.90;;;;;;;;;;4403142;32;20244;-54
2022/05/02 07:15:09;;;;;;;11.57;7.00;;;;;;;;;;4402866;32;20570;-55
2022/05/02 07:17:44;;;;;;;15.17;7.57;;;;;;;;;;4402375;32;20759;-55
2022/05/02 07:20:17;;;;;;;15.30;8.50;;;;;;;;;;4403175;32;20256;-55
2022/05/02 07:22:44;;;;;;;11.80;8.00;;;;;;;;;;4417264;32;20268;-55
2022/05/02 07:25:12;;;;;;;11.02;8.23;;;;;;;;;;4417958;32;20201;-54
2022/05/02 07:27:56;;;;;;;10.83;8.03;;;;;;;;;;4417952;32;20259;-54
2022/05/02 07:30:22;;;;;;;11.63;8.73;;;;;;;;;;4418045;32;20229;-54
2022/05/02 07:32:50;;;;;;;19.00;9.30;;;;;;;;;;4417835;32;20229;-56
2022/05/02 07:35:16;;;;;;;11.07;7.78;;;;;;;;;;4416954;32;20224;-56
2022/05/02 07:37:43;;;;;;;9.77;8.77;;;;;;;;;;4390585;32;20343;-55
2022/05/02 07:40:12;;;;;;;9.82;8.07;;;;;;;;;;4390210;32;20259;-56
2022/05/02 07:42:39;;;;;;;11.52;7.90;;;;;;;;;;4405180;32;20653;-55
2022/05/02 07:45:09;;;;;;;9.07;7.03;;;;;;;;;;4405348;32;20486;-54
2022/05/02 07:47:35;;;;;;;17.45;7.18;;;;;;;;;;4405455;32;20238;-55
2022/05/02 07:50:04;;;;;;;8.63;6.70;;;;;;;;;;4405622;32;20296;-55
2022/05/02 07:52:30;;;;;;;8.02;6.57;;;;;;;;;;4405656;32;20312;-55
2022/05/02 07:55:00;;;;;;;16.75;6.93;;;;;;;;;;4406070;32;20709;-56
2022/05/02 07:57:27;;;;;;;10.43;7.78;;;;;;;;;;4405609;32;20249;-55
2022/05/02 07:59:55;;;;;;;13.15;7.10;;;;;;;;;;4390325;32;20274;-55
2022/05/02 08:02:22;;;;;;;11.38;7.70;;;;;;;;;;4399562;32;20241;-55
2022/05/02 08:04:48;;;;;;;8.40;6.75;;;;;;;;;;4405499;32;20312;-56
2022/05/02 08:07:18;;;;;;;15.43;6.72;;;;;;;;;;4405170;32;20263;-55
2022/05/02 08:10:13;;;;;;;9.63;7.30;;;;;;;;;;4406065;32;20273;-55
2022/05/02 08:12:40;;;;;;;7.57;6.12;;;;;;;;;;4405254;32;20278;-55
2022/05/02 08:15:13;;;;;;;8.82;7.30;;;;;;;;;;4405034;32;20210;-55
2022/05/02 08:18:17;;;;;;;9.30;7.28;;;;;;;;;;4405402;32;20321;-54
2022/05/02 08:20:50;;;;;;;7.22;6.00;;;;;;;;;;4404697;32;20198;-54
2022/05/02 08:29:26;;;;;;;9.98;7.40;;;;;;;;;;4405256;32;20269;-55
2022/05/02 08:32:10;;;;;;;8.88;6.25;;;;;;;;;;4402448;32;20214;-55
2022/05/02 08:34:38;;;;;;;7.43;6.20;;;;;;;;;;4389958;32;20193;-55
2022/05/02 08:37:22;;;;;;;12.15;6.43;;;;;;;;;;4389969;32;20264;-54
2022/05/02 08:40:04;;;;;;;12.43;7.57;;;;;;;;;;4411210;32;20213;-54
2022/05/02 08:42:50;;;;;;;10.07;6.18;;;;;;;;;;4405041;32;20344;-54
2022/05/02 08:45:24;;;;;;;9.30;6.68;;;;;;;;;;4389833;32;20645;-56
2022/05/02 08:48:26;;;;;;;11.12;6.95;;;;;;;;;;4389578;32;20325;-55
2022/05/02 08:51:10;;;;;;;11.35;7.25;;;;;;;;;;4389557;32;20230;-55
2022/05/02 08:53:44;;;;;;;12.68;7.00;;;;;;;;;;4389437;32;20218;-55
2022/05/02 08:56:28;;;;;;;7.85;6.47;;;;;;;;;;4389707;32;20212;-55
2022/05/02 08:59:22;;;;;;;9.43;6.57;;;;;;;;;;4397453;32;20353;-56
2022/05/02 09:01:59;;;;;;;8.68;7.70;;;;;;;;;;4405119;32;20202;-55
2022/05/02 09:04:49;;;;;;;8.27;6.95;;;;;;;;;;4404768;32;20291;-55
2022/05/02 09:07:23;;;;;;;10.45;6.00;;;;;;;;;;4389740;32;20241;-55
2022/05/02 09:10:26;;;;;;;8.65;6.05;;;;;;;;;;4389358;32;20299;-55
2022/05/02 09:13:10;;;;;;;9.18;6.97;;;;;;;;;;4389401;32;20304;-56
2022/05/02 09:15:36;;;;;;;10.77;6.68;;;;;;;;;;4400576;32;20193;-56
2022/05/02 09:18:19;;;;;;;11.40;6.90;;;;;;;;;;4404068;32;20755;-55
2022/05/02 09:20:59;;;;;;;7.40;5.22;;;;;;;;;;4404628;32;20581;-55
2022/05/02 09:24:00;;;;;;;10.95;7.30;;;;;;;;;;4404213;32;20295;-55
2022/05/02 09:26:53;;;;;;;6.28;5.68;;;;;;;;;;4403947;32;20273;-55
2022/05/02 09:29:49;;;;;;;8.05;5.22;;;;;;;;;;4394105;32;20224;-55
2022/05/02 09:32:33;;;;;;;7.57;5.70;;;;;;;;;;4388807;32;20222;-55
2022/05/02 09:35:11;;;;;;;10.00;6.35;;;;;;;;;;4389467;32;20199;-54
2022/05/02 09:37:38;;;;;;;10.50;8.18;;;;;;;;;;4391813;32;20221;-54
2022/05/02 09:40:16;;;;;;;7.65;6.15;;;;;;;;;;4409697;32;20268;-54
2022/05/02 09:43:14;;;;;;;13.13;7.07;;;;;;;;;;4403876;32;20248;-54
2022/05/02 09:49:34;;;;;;;6.43;5.45;;;;;;;;;;4403886;32;20339;-54
2022/05/02 09:52:15;;;;;;;7.40;6.07;;;;;;;;;;4403788;32;20298;-54
2022/05/02 09:58:26;;;;;;;10.18;5.28;;;;;;;;;;4403527;32;20267;-53
2022/05/02 10:01:17;;;;;;;7.53;5.40;;;;;;;;;;4404202;32;20198;-55
2022/05/02 10:04:18;;;;;;;10.10;5.35;;;;;;;;;;4403046;32;20279;-55
2022/05/02 10:06:51;;;;;;;8.68;3.75;;;;;;;;;;4399083;32;20271;-55
2022/05/02 10:09:38;;;;;;;6.75;4.68;;;;;;;;;;4403271;32;20233;-56
2022/05/02 10:12:18;;;;;;;10.77;4.37;;;;;;;;;;4403508;32;20360;-55
2022/05/02 10:15:14;;;;;;;6.62;4.90;;;;;;;;;;4403126;32;20274;-55
2022/05/02 10:17:58;;;;;;;9.40;5.72;;;;;;;;;;4403342;32;20217;-54
2022/05/02 10:20:35;;;;;;;10.55;6.62;;;;;;;;;;4403352;32;20228;-56
2022/05/02 10:23:03;;;;;;;11.15;9.40;;;;;;;;;;4403475;32;20220;-54
2022/05/02 10:25:32;;;;;;;9.80;6.30;;;;;;;;;;4393812;32;20310;-55
2022/05/02 10:28:08;;;;;;;19.05;6.82;;;;;;;;;;4387513;32;20226;-55
2022/05/02 10:31:04;;;;;;;10.77;6.43;;;;;;;;;;4388846;32;20177;-55
2022/05/02 10:33:44;;;;;;;9.23;5.95;;;;;;;;;;4388827;32;20218;-56
2022/05/02 10:36:11;;;;;;;7.22;4.53;;;;;;;;;;4400807;32;20216;-55
2022/05/02 10:38:51;;;;;;;8.20;4.65;;;;;;;;;;4409987;32;20310;-55
2022/05/02 10:41:23;;;;;;;6.37;5.43;;;;;;;;;;4397272;32;20212;-55
2022/05/02 10:43:52;;;;;;;10.18;4.78;;;;;;;;;;4403626;32;20256;-55
2022/05/02 10:46:21;;;;;;;10.10;4.07;;;;;;;;;;4403309;32;20197;-54
2022/05/02 10:49:11;;;;;;;4.90;4.40;;;;;;;;;;4403513;32;20221;-54
2022/05/02 10:51:56;;;;;;;8.68;5.20;;;;;;;;;;4403228;32;20370;-54
2022/05/02 10:54:34;;;;;;;6.25;4.72;;;;;;;;;;4403171;32;20264;-54
2022/05/02 10:57:21;;;;;;;5.30;4.62;;;;;;;;;;4403030;32;20204;-54
2022/05/02 10:59:51;;;;;;;13.18;5.85;;;;;;;;;;4401727;32;20251;-54
2022/05/02 11:02:49;;;;;;;8.88;5.70;;;;;;;;;;4389066;32;20256;-54
2022/05/02 11:05:16;;;;;;;7.50;4.85;;;;;;;;;;4393335;32;20293;-55
2022/05/02 11:07:58;;;;;;;6.32;4.47;;;;;;;;;;4387935;32;20247;-56
2022/05/02 11:10:38;;;;;;;6.30;4.03;;;;;;;;;;4396276;32;20206;-56
2022/05/02 11:13:28;;;;;;;12.35;5.40;;;;;;;;;;4402775;32;20225;-57
2022/05/02 11:16:19;;;;;;;10.82;4.00;;;;;;;;;;4403156;32;20292;-56
2022/05/02 11:22:13;;;;;;;7.93;4.35;;;;;;;;;;4398384;32;20286;-55
2022/05/02 11:25:02;;;;;;;12.55;5.07;;;;;;;;;;4414680;32;20265;-54
2022/05/02 11:27:31;;;;;;;10.45;4.95;;;;;;;;;;4417774;32;20248;-55
2022/05/02 11:30:03;;;;;;;4.72;3.42;;;;;;;;;;4418113;32;20507;-55
2022/05/02 11:33:01;;;;;;;6.10;5.05;;;;;;;;;;4411058;32;20283;-55
2022/05/02 11:35:31;;;;;;;6.30;3.62;;;;;;;;;;4402578;32;20300;-55
2022/05/02 11:38:23;;;;;;;5.97;4.12;;;;;;;;;;4402492;32;20256;-55
2022/05/02 11:40:58;;;;;;;6.90;4.50;;;;;;;;;;4393533;32;20324;-56
2022/05/02 11:43:24;;;;;;;4.75;3.60;;;;;;;;;;4402634;32;20209;-55
2022/05/02 11:46:02;;;;;;;5.50;4.35;;;;;;;;;;4402411;32;20302;-56
2022/05/02 11:49:06;;;;;;;13.57;3.87;;;;;;;;;;4401755;32;20233;-56
2022/05/02 11:51:45;;;;;;;5.65;4.10;;;;;;;;;;4363023;32;20225;-56
2022/05/02 11:54:35;;;;;;;12.18;4.07;;;;;;;;;;4402821;32;20351;-55
2022/05/02 11:57:14;;;;;;;6.15;4.25;;;;;;;;;;4402341;32;20217;-55
2022/05/02 12:00:00;;;;;;;6.97;4.70;;;;;;;;;;4401743;32;20297;-54
2022/05/02 12:02:56;;;;;;;10.38;4.78;;;;;;;;;;4389395;32;20216;-56
2022/05/02 12:05:25;;;;;;;7.68;4.35;;;;;;;;;;4398168;32;20341;-55
2022/05/02 12:08:00;;;;;;;4.32;3.90;;;;;;;;;;4402079;32;20252;-55
2022/05/02 12:10:47;;;;;;;6.28;5.57;;;;;;;;;;4402097;32;20239;-56
2022/05/02 12:13:20;;;;;;;8.55;5.15;;;;;;;;;;4402103;32;20350;-56
2022/05/02 12:16:04;;;;;;;6.45;4.65;;;;;;;;;;4401789;32;20598;-56
2022/05/02 12:18:50;;;;;;;7.28;4.75;;;;;;;;;;4402038;32;20251;-56
2022/05/02 12:21:23;;;;;;;9.07;5.00;;;;;;;;;;4401792;32;20637;-56
2022/05/02 12:23:50;;;;;;;6.50;4.75;;;;;;;;;;4408409;32;20243;-54
2022/05/02 12:26:18;;;;;;;6.10;4.70;;;;;;;;;;4418789;32;20608;-56
2022/05/02 12:28:49;;;;;;;6.55;4.87;;;;;;;;;;4413546;32;20217;-55
2022/05/02 12:31:29;;;;;;;7.03;5.12;;;;;;;;;;4404663;32;20260;-56
2022/05/02 12:34:14;;;;;;;6.28;4.90;;;;;;;;;;4404712;32;20284;-56
2022/05/02 12:36:47;;;;;;;4.75;4.12;;;;;;;;;;4404985;32;20256;-55
2022/05/02 12:39:26;;;;;;;8.93;4.60;;;;;;;;;;4396445;32;20230;-55
2022/05/02 12:42:15;;;;;;;8.68;4.55;;;;;;;;;;4406947;32;20548;-55
2022/05/02 12:45:13;;;;;;;6.93;4.28;;;;;;;;;;4404809;32;20581;-56
2022/05/02 12:48:18;;;;;;;7.20;5.00;;;;;;;;;;4403293;32;20348;-55
2022/05/02 12:50:45;;;;;;;8.77;4.87;;;;;;;;;;4396487;32;20366;-56
2022/05/02 12:56:13;;;;;;;6.03;4.50;;;;;;;;;;4404584;32;20279;-56
2022/05/02 13:01:39;;;;;;;6.93;5.62;;;;;;;;;;4404336;32;20648;-56
2022/05/02 13:04:06;;;;;;;6.12;5.45;;;;;;;;;;4404809;32;20278;-56
2022/05/02 13:06:39;;;;;;;6.20;5.20;;;;;;;;;;4404351;32;20347;-56
2022/05/02 13:09:12;;;;;;;14.13;4.65;;;;;;;;;;4404693;32;20737;-55
2022/05/02 13:11:38;;;;;;;6.82;5.35;;;;;;;;;;4404416;32;20210;-56
2022/05/02 13:14:05;;;;;;;7.15;4.57;;;;;;;;;;4404428;32;20378;-56
2022/05/02 13:16:43;;;;;;;5.45;4.95;;;;;;;;;;4404381;32;20364;-57
2022/05/02 13:19:10;;;;;;;6.20;5.30;;;;;;;;;;4404271;32;20245;-56
2022/05/02 13:21:35;;;;;;;6.68;5.40;;;;;;;;;;4403844;32;20205;-56
2022/05/02 13:24:10;;;;;;;10.88;5.20;;;;;;;;;;4390173;32;20755;-56
2022/05/02 13:26:57;;;;;;;7.12;4.62;;;;;;;;;;4404022;32;20604;-56
2022/05/02 13:29:40;;;;;;;10.27;4.65;;;;;;;;;;4403840;32;20567;-55
2022/05/02 13:32:15;;;;;;;10.52;5.95;;;;;;;;;;4403007;32;20197;-56
2022/05/02 13:34:50;;;;;;;7.43;5.12;;;;;;;;;;4404295;32;20339;-56
2022/05/02 13:37:29;;;;;;;5.55;5.00;;;;;;;;;;4403607;32;20375;-56
2022/05/02 13:40:08;;;;;;;10.25;5.85;;;;;;;;;;4397308;32;20311;-61
2022/05/02 13:42:59;;;;;;;9.43;5.25;;;;;;;;;;4403772;32;20870;-57
2022/05/02 13:45:50;;;;;;;10.75;5.68;;;;;;;;;;4403798;32;20355;-55
2022/05/02 13:48:27;;;;;;;7.37;5.65;;;;;;;;;;4403789;32;20271;-55
2022/05/02 13:51:08;;;;;;;6.40;4.60;;;;;;;;;;4389973;32;20247;-56
2022/05/02 13:53:49;;;;;;;6.97;5.65;;;;;;;;;;4396653;32;20367;-55
2022/05/02 13:56:26;;;;;;;8.07;5.35;;;;;;;;;;4388482;32;20260;-55
2022/05/02 13:58:56;;;;;;;5.95;4.78;;;;;;;;;;4395761;32;20229;-56
2022/05/02 14:01:49;;;;;;;7.82;5.45;;;;;;;;;;4403409;32;20320;-55
2022/05/02 14:09:41;;;;;;;11.25;4.22;;;;;;;;;;4403482;32;20262;-56
2022/05/02 14:12:07;;;;;;;6.35;4.40;;;;;;;;;;4403680;32;20225;-55
2022/05/02 14:14:41;;;;;;;6.30;4.05;;;;;;;;;;4403435;32;20304;-55
2022/05/02 14:17:25;;;;;;;3.90;3.50;;;;;;;;;;4403301;32;20201;-55
2022/05/02 14:19:50;;;;;;;4.68;3.45;;;;;;;;;;4402943;32;20210;-55
2022/05/02 14:22:33;;;;;;;4.85;4.00;;;;;;;;;;4389071;32;20650;-54
2022/05/02 14:24:59;;;;;;;4.72;3.72;;;;;;;;;;4388950;32;20222;-54
2022/05/02 14:27:24;;;;;;;8.18;4.25;;;;;;;;;;4387631;32;20775;-56
2022/05/02 14:30:01;;;;;;;6.55;3.95;;;;;;;;;;4387952;32;20410;-54
2022/05/02 14:32:39;;;;;;;8.23;3.35;;;;;;;;;;4387876;32;20237;-54
2022/05/02 14:35:05;;;;;;;5.75;4.25;;;;;;;;;;4387995;32;20273;-55
2022/05/02 14:37:32;;;;;;;6.55;4.43;;;;;;;;;;4376231;32;20264;-53
2022/05/02 14:39:58;;;;;;;6.45;4.30;;;;;;;;;;4402946;32;20283;-54
2022/05/02 14:42:25;;;;;;;7.10;4.90;;;;;;;;;;4402944;32;20300;-56
2022/05/02 14:44:52;;;;;;;6.80;4.90;;;;;;;;;;4403075;32;20222;-56
2022/05/02 14:47:18;;;;;;;8.38;4.65;;;;;;;;;;4402650;32;20638;-55
2022/05/02 14:49:44;;;;;;;8.35;5.12;;;;;;;;;;4396625;32;20330;-56
2022/05/02 14:52:18;;;;;;;9.98;4.90;;;;;;;;;;4387512;32;20708;-55
2022/05/02 14:54:45;;;;;;;10.38;5.05;;;;;;;;;;4396078;32;20550;-54
2022/05/02 14:57:14;;;;;;;5.18;4.68;;;;;;;;;;4417637;32;20217;-55
2022/05/02 14:59:43;;;;;;;8.00;4.32;;;;;;;;;;4417050;32;20243;-54
2022/05/02 15:02:09;;;;;;;5.20;3.92;;;;;;;;;;4417360;32;20210;-55
2022/05/02 15:04:39;;;;;;;12.93;5.93;;;;;;;;;;4402724;32;20343;-56
2022/05/02 15:07:08;;;;;;;9.55;6.03;;;;;;;;;;4388875;32;20276;-54
2022/05/02 15:12:41;;;;;;;12.13;5.40;;;;;;;;;;4387053;32;20260;-55
2022/05/02 15:15:35;;;;;;;6.55;3.37;;;;;;;;;;4395749;32;20513;-55
2022/05/02 15:18:41;;;;;;;6.62;4.62;;;;;;;;;;4402646;32;20259;-54
2022/05/02 15:21:19;;;;;;;7.75;4.53;;;;;;;;;;4401746;32;20217;-54
2022/05/02 15:23:44;;;;;;;7.20;4.75;;;;;;;;;;4408488;32;20765;-54
2022/05/02 15:26:10;;;;;;;6.43;5.00;;;;;;;;;;4417253;32;20294;-54
2022/05/02 15:37:37;;;;;;;12.10;4.72;;;;;;;;;;4389852;32;20354;-54
2022/05/02 15:40:40;;;;;;;6.43;4.97;;;;;;;;;;4402345;32;20551;-53
2022/05/02 15:43:19;;;;;;;9.63;5.37;;;;;;;;;;4401971;32;20232;-54
2022/05/02 15:45:45;;;;;;;7.93;5.22;;;;;;;;;;4397269;32;20628;-54
2022/05/02 15:48:33;;;;;;;13.88;5.97;;;;;;;;;;4387178;32;20238;-54
2022/05/02 15:51:26;;;;;;;8.30;6.22;;;;;;;;;;4386806;32;20304;-55
2022/05/02 15:54:23;;;;;;;9.60;5.62;;;;;;;;;;4385386;32;20260;-53
2022/05/02 15:56:57;;;;;;;9.65;6.37;;;;;;;;;;4387013;32;20202;-54
2022/05/02 15:59:45;;;;;;;13.70;5.32;;;;;;;;;;4386674;32;20229;-54
2022/05/02 16:02:12;;;;;;;9.50;6.37;;;;;;;;;;4390393;32;20209;-54